DLH758 EDDF-VOMM
Flight info
| Callsign | DLH758 |
|---|---|
| Flight time | N/A |
| Altitude | 31000 |
| Route | CINDY8S/18 CINDY Z74 HAREM DCT ASLEP DCT TAKUT DCT DINKU L603 BESNI/N0470F350 L605 MIQ DCT ALUTU DCT BIBAG Q104 AKIMA DCT STEIN DCT TEGRI DCT LUGEB DCT UDROS UM859 KARDE UL851 TBN UM11 EKTES/N0474F370 UM11 REBLO P130 MAMED B449 RANAH L750 ZB G202 RK P628 IBANI/N0473F390 Q23 RINTO RINTO2E |
| Aircraft | A346/H-SDE2E3FGHIJ3J4J5M1P2RWXYZ/LB1D1 |
Departure
| Time | 2026-05-06 19:04 |
|---|---|
| Airport | Frankfurt Main Airport (EDDF) |
Arrival
| Time | N/A |
|---|---|
| Airport | Chennai International Airport (VOMM) |
| Time | Latitude | Longitude | Altitude | Speed | Heading |
|---|---|---|---|---|---|
| 2026-05-06 17:39 | 50.04641 | 8.55945 | 364 ft | 0 kts | 340° |
| 2026-05-06 18:48 | 50.04640 | 8.55946 | 364 ft | 1 kts | 340° |
| 2026-05-06 18:48 | 50.04617 | 8.55959 | 365 ft | 4 kts | 339° |
| 2026-05-06 18:48 | 50.04596 | 8.55971 | 370 ft | 4 kts | 335° |
| 2026-05-06 18:48 | 50.04578 | 8.55991 | 366 ft | 4 kts | 306° |
| 2026-05-06 18:49 | 50.04571 | 8.56018 | 370 ft | 4 kts | 270° |
| 2026-05-06 18:49 | 50.04575 | 8.56056 | 370 ft | 4 kts | 252° |
| 2026-05-06 18:49 | 50.04584 | 8.56093 | 369 ft | 2 kts | 250° |
| 2026-05-06 18:49 | 50.04584 | 8.56094 | 369 ft | 0 kts | 250° |
| 2026-05-06 18:55 | 50.04584 | 8.56092 | 364 ft | 1 kts | 250° |
| 2026-05-06 18:55 | 50.04575 | 8.56053 | 369 ft | 6 kts | 250° |
| 2026-05-06 18:56 | 50.04552 | 8.55987 | 371 ft | 8 kts | 226° |
| 2026-05-06 18:56 | 50.04526 | 8.55960 | 371 ft | 1 kts | 205° |
| 2026-05-06 18:56 | 50.04492 | 8.55940 | 370 ft | 7 kts | 197° |
| 2026-05-06 18:56 | 50.04439 | 8.55916 | 370 ft | 9 kts | 195° |
| 2026-05-06 18:57 | 50.04389 | 8.55911 | 369 ft | 7 kts | 172° |
| 2026-05-06 18:57 | 50.04354 | 8.55925 | 369 ft | 3 kts | 160° |
| 2026-05-06 18:57 | 50.04318 | 8.55944 | 365 ft | 7 kts | 160° |
| 2026-05-06 18:57 | 50.04263 | 8.55953 | 365 ft | 9 kts | 204° |
| 2026-05-06 18:58 | 50.04220 | 8.55858 | 366 ft | 13 kts | 247° |
| 2026-05-06 18:58 | 50.04187 | 8.55722 | 365 ft | 14 kts | 250° |
| 2026-05-06 18:58 | 50.04150 | 8.55567 | 364 ft | 16 kts | 250° |
| 2026-05-06 18:58 | 50.04110 | 8.55399 | 366 ft | 17 kts | 249° |
| 2026-05-06 18:59 | 50.04066 | 8.55215 | 365 ft | 19 kts | 249° |
| 2026-05-06 18:59 | 50.04018 | 8.55013 | 366 ft | 21 kts | 249° |
| 2026-05-06 18:59 | 50.03964 | 8.54791 | 365 ft | 23 kts | 249° |
| 2026-05-06 18:59 | 50.03907 | 8.54552 | 362 ft | 22 kts | 249° |
| 2026-05-06 19:00 | 50.03878 | 8.54430 | 355 ft | 15 kts | 248° |
| 2026-05-06 19:00 | 50.03821 | 8.54285 | 360 ft | 16 kts | 236° |
| 2026-05-06 19:00 | 50.03773 | 8.54111 | 358 ft | 19 kts | 249° |
| 2026-05-06 19:00 | 50.03724 | 8.53908 | 357 ft | 21 kts | 249° |
| 2026-05-06 19:01 | 50.03670 | 8.53683 | 355 ft | 23 kts | 249° |
| 2026-05-06 19:01 | 50.03609 | 8.53439 | 354 ft | 25 kts | 249° |
| 2026-05-06 19:01 | 50.03546 | 8.53174 | 356 ft | 27 kts | 250° |
| 2026-05-06 19:01 | 50.03492 | 8.52950 | 351 ft | 22 kts | 250° |
| 2026-05-06 19:02 | 50.03441 | 8.52750 | 353 ft | 9 kts | 248° |
| 2026-05-06 19:02 | 50.03413 | 8.52643 | 347 ft | 11 kts | 242° |
| 2026-05-06 19:02 | 50.03340 | 8.52594 | 349 ft | 8 kts | 180° |
| 2026-05-06 19:02 | 50.03337 | 8.52594 | 349 ft | 0 kts | 180° |
| 2026-05-06 19:03 | 50.03314 | 8.52594 | 349 ft | 19 kts | 180° |
| 2026-05-06 19:03 | 50.02962 | 8.52598 | 344 ft | 81 kts | 180° |
| 2026-05-06 19:03 | 50.02208 | 8.52606 | 343 ft | 133 kts | 179° |
| 2026-05-06 19:03 | 50.01119 | 8.52620 | 336 ft | 178 kts | 180° |
| 2026-05-06 19:04 | 49.99798 | 8.52605 | 602 ft | 195 kts | 182° |
| 2026-05-06 19:04 | 49.98427 | 8.52606 | 1156 ft | 199 kts | 181° |
| 2026-05-06 19:04 | 49.97042 | 8.52759 | 1758 ft | 203 kts | 161° |
| 2026-05-06 19:04 | 49.95949 | 8.54127 | 2270 ft | 210 kts | 123° |
| 2026-05-06 19:05 | 49.95208 | 8.56162 | 2636 ft | 223 kts | 117° |
| 2026-05-06 19:05 | 49.94489 | 8.58388 | 2948 ft | 237 kts | 115° |
| 2026-05-06 19:05 | 49.94003 | 8.60887 | 3427 ft | 245 kts | 97° |
| 2026-05-06 19:05 | 49.93862 | 8.63596 | 3853 ft | 259 kts | 93° |
| 2026-05-06 19:06 | 49.93786 | 8.66487 | 4197 ft | 275 kts | 94° |
| 2026-05-06 19:06 | 49.93389 | 8.69411 | 4704 ft | 280 kts | 122° |
| 2026-05-06 19:06 | 49.92088 | 8.71596 | 5406 ft | 274 kts | 148° |
| 2026-05-06 19:06 | 49.90514 | 8.73266 | 6206 ft | 275 kts | 149° |
| 2026-05-06 19:07 | 49.88967 | 8.75057 | 6907 ft | 281 kts | 139° |
| 2026-05-06 19:07 | 49.87714 | 8.77414 | 7647 ft | 287 kts | 125° |
| 2026-05-06 19:07 | 49.86699 | 8.80102 | 8414 ft | 291 kts | 121° |
| 2026-05-06 19:07 | 49.85719 | 8.82874 | 9187 ft | 294 kts | 121° |
| 2026-05-06 19:08 | 49.84725 | 8.85677 | 9926 ft | 298 kts | 121° |
| 2026-05-06 19:08 | 49.83705 | 8.88529 | 10486 ft | 309 kts | 121° |
| 2026-05-06 19:08 | 49.82626 | 8.91519 | 10843 ft | 326 kts | 121° |
| 2026-05-06 19:08 | 49.81487 | 8.94659 | 11168 ft | 343 kts | 121° |
| 2026-05-06 19:09 | 49.80284 | 8.97965 | 11476 ft | 360 kts | 121° |
| 2026-05-06 19:09 | 49.79025 | 9.01420 | 11803 ft | 377 kts | 121° |
| 2026-05-06 19:09 | 49.77715 | 9.05024 | 12254 ft | 389 kts | 120° |
| 2026-05-06 19:09 | 49.76543 | 9.08821 | 12996 ft | 392 kts | 113° |
| 2026-05-06 19:10 | 49.75618 | 9.12803 | 13813 ft | 395 kts | 109° |
| 2026-05-06 19:10 | 49.74687 | 9.16820 | 14476 ft | 398 kts | 114° |
| 2026-05-06 19:10 | 49.73416 | 9.20569 | 15087 ft | 400 kts | 124° |
| 2026-05-06 19:10 | 49.71723 | 9.24002 | 15761 ft | 401 kts | 131° |
| 2026-05-06 19:11 | 49.69907 | 9.27270 | 16445 ft | 404 kts | 132° |
| 2026-05-06 19:11 | 49.68041 | 9.30549 | 17113 ft | 407 kts | 133° |
| 2026-05-06 19:11 | 49.66162 | 9.33849 | 17764 ft | 411 kts | 133° |
| 2026-05-06 19:11 | 49.64272 | 9.37177 | 18383 ft | 414 kts | 131° |
| 2026-05-06 19:12 | 49.62562 | 9.40796 | 18939 ft | 419 kts | 123° |
| 2026-05-06 19:12 | 49.61193 | 9.44787 | 19519 ft | 423 kts | 115° |
| 2026-05-06 19:12 | 49.60158 | 9.49064 | 20073 ft | 427 kts | 110° |
| 2026-05-06 19:12 | 49.59229 | 9.53434 | 20603 ft | 430 kts | 110° |
| 2026-05-06 19:13 | 49.58303 | 9.57852 | 21137 ft | 434 kts | 110° |
| 2026-05-06 19:13 | 49.57365 | 9.62291 | 21674 ft | 437 kts | 110° |
| 2026-05-06 19:13 | 49.56410 | 9.66754 | 22210 ft | 439 kts | 110° |
| 2026-05-06 19:13 | 49.55445 | 9.71225 | 22805 ft | 439 kts | 110° |
| 2026-05-06 19:14 | 49.54477 | 9.75694 | 23372 ft | 440 kts | 110° |
| 2026-05-06 19:14 | 49.53384 | 9.80112 | 23785 ft | 441 kts | 116° |
| 2026-05-06 19:14 | 49.51967 | 9.84301 | 24236 ft | 442 kts | 123° |
| 2026-05-06 19:14 | 49.50240 | 9.88215 | 24708 ft | 442 kts | 129° |
| 2026-05-06 19:15 | 49.48327 | 9.91925 | 25182 ft | 442 kts | 131° |
| 2026-05-06 19:15 | 49.46386 | 9.95592 | 25694 ft | 443 kts | 132° |
| 2026-05-06 19:15 | 49.44423 | 9.99274 | 26155 ft | 445 kts | 132° |
| 2026-05-06 19:15 | 49.42458 | 10.02963 | 26570 ft | 448 kts | 132° |
| 2026-05-06 19:16 | 49.40480 | 10.06685 | 26987 ft | 450 kts | 132° |
| 2026-05-06 19:16 | 49.38498 | 10.10420 | 27511 ft | 450 kts | 132° |
| 2026-05-06 19:16 | 49.36527 | 10.14138 | 28175 ft | 447 kts | 132° |
| 2026-05-06 19:16 | 49.34567 | 10.17830 | 28824 ft | 445 kts | 133° |
| 2026-05-06 19:17 | 49.32612 | 10.21502 | 29434 ft | 444 kts | 133° |
| 2026-05-06 19:17 | 49.30654 | 10.25171 | 29913 ft | 445 kts | 133° |
| 2026-05-06 19:17 | 49.28685 | 10.28856 | 30240 ft | 447 kts | 133° |
| 2026-05-06 19:17 | 49.26708 | 10.32553 | 30606 ft | 450 kts | 133° |
| 2026-05-06 19:18 | 49.24696 | 10.36248 | 30828 ft | 453 kts | 135° |
| 2026-05-06 19:18 | 49.20337 | 10.43202 | 30875 ft | 452 kts | 140° |
| 2026-05-06 19:19 | 49.15825 | 10.49908 | 30892 ft | 452 kts | 140° |
| 2026-05-06 19:19 | 49.11309 | 10.56614 | 30891 ft | 452 kts | 140° |
| 2026-05-06 19:20 | 49.06791 | 10.63302 | 30852 ft | 452 kts | 140° |
| 2026-05-06 19:20 | 49.02269 | 10.69979 | 30881 ft | 452 kts | 140° |
| 2026-05-06 19:21 | 48.97749 | 10.76617 | 30890 ft | 455 kts | 140° |
| 2026-05-06 19:21 | 48.93183 | 10.83304 | 30880 ft | 455 kts | 140° |
| 2026-05-06 19:22 | 48.88620 | 10.89988 | 30871 ft | 455 kts | 140° |
| 2026-05-06 19:22 | 48.84052 | 10.96668 | 30857 ft | 456 kts | 140° |
| 2026-05-06 19:23 | 48.79488 | 11.03325 | 30831 ft | 455 kts | 141° |
| 2026-05-06 19:23 | 48.74908 | 11.09973 | 30831 ft | 457 kts | 141° |
| 2026-05-06 19:24 | 48.70314 | 11.16647 | 30837 ft | 459 kts | 139° |
| 2026-05-06 19:24 | 48.66212 | 11.24155 | 30836 ft | 466 kts | 129° |
| 2026-05-06 19:25 | 48.62983 | 11.32772 | 30846 ft | 473 kts | 119° |
| 2026-05-06 19:25 | 48.60703 | 11.42190 | 30831 ft | 479 kts | 112° |
| 2026-05-06 19:26 | 48.58708 | 11.51805 | 30836 ft | 477 kts | 112° |
| 2026-05-06 19:26 | 48.56817 | 11.61423 | 30843 ft | 479 kts | 108° |
| 2026-05-06 19:27 | 48.55331 | 11.71390 | 31324 ft | 488 kts | 107° |
| 2026-05-06 19:27 | 48.54607 | 11.76407 | 31705 ft | 488 kts | 107° |
| 2026-05-06 19:27 | 48.53877 | 11.81433 | 31972 ft | 493 kts | 107° |
| 2026-05-06 19:27 | 48.53143 | 11.86445 | 32182 ft | 497 kts | 107° |
| 2026-05-06 19:28 | 48.52378 | 11.91643 | 32472 ft | 500 kts | 107° |
| 2026-05-06 19:28 | 48.51621 | 11.96777 | 32782 ft | 503 kts | 107° |
| 2026-05-06 19:28 | 48.50866 | 12.01865 | 33088 ft | 505 kts | 107° |
| 2026-05-06 19:28 | 48.50093 | 12.07051 | 33347 ft | 507 kts | 108° |
| 2026-05-06 19:29 | 48.49313 | 12.12256 | 33585 ft | 510 kts | 108° |
| 2026-05-06 19:29 | 48.48526 | 12.17493 | 33785 ft | 512 kts | 108° |
| 2026-05-06 19:29 | 48.47735 | 12.22739 | 33953 ft | 514 kts | 108° |
| 2026-05-06 19:29 | 48.46936 | 12.28017 | 34123 ft | 516 kts | 108° |
| 2026-05-06 19:30 | 48.46133 | 12.33302 | 34307 ft | 517 kts | 108° |
| 2026-05-06 19:30 | 48.45330 | 12.38579 | 34675 ft | 510 kts | 108° |
| 2026-05-06 19:30 | 48.44554 | 12.43694 | 34871 ft | 495 kts | 108° |
| 2026-05-06 19:31 | 48.43005 | 12.53750 | 34861 ft | 490 kts | 109° |
| 2026-05-06 19:31 | 48.40810 | 12.68812 | 34848 ft | 493 kts | 104° |
| 2026-05-06 19:32 | 48.40062 | 12.79122 | 34846 ft | 497 kts | 98° |
| 2026-05-06 19:32 | 48.40078 | 12.89595 | 34845 ft | 501 kts | 92° |
| 2026-05-06 19:33 | 48.40425 | 13.00091 | 34852 ft | 501 kts | 91° |
| 2026-05-06 19:33 | 48.40755 | 13.10621 | 34829 ft | 505 kts | 92° |
| 2026-05-06 19:34 | 48.40874 | 13.21186 | 34826 ft | 502 kts | 98° |
| 2026-05-06 19:34 | 48.40065 | 13.31552 | 34815 ft | 495 kts | 107° |
| 2026-05-06 19:35 | 48.38286 | 13.41493 | 34815 ft | 488 kts | 115° |
| 2026-05-06 19:35 | 48.35743 | 13.50919 | 34793 ft | 486 kts | 120° |
| 2026-05-06 19:36 | 48.33068 | 13.60270 | 34802 ft | 486 kts | 120° |
| 2026-05-06 19:36 | 48.30399 | 13.69617 | 34789 ft | 486 kts | 120° |
| 2026-05-06 19:37 | 48.27730 | 13.78965 | 34790 ft | 486 kts | 120° |
| 2026-05-06 19:37 | 48.25512 | 13.86727 | 34755 ft | 486 kts | 120° |
| 2026-05-06 19:38 | 48.22378 | 13.97640 | 34772 ft | 486 kts | 120° |
| 2026-05-06 19:38 | 48.19696 | 14.06944 | 34834 ft | 485 kts | 120° |
| 2026-05-06 19:39 | 48.17011 | 14.16231 | 34839 ft | 485 kts | 120° |
| 2026-05-06 19:39 | 48.14317 | 14.25515 | 34814 ft | 486 kts | 120° |
| 2026-05-06 19:40 | 48.11604 | 14.34821 | 34815 ft | 488 kts | 120° |
| 2026-05-06 19:40 | 48.08875 | 14.44147 | 34792 ft | 488 kts | 121° |
| 2026-05-06 19:41 | 48.06148 | 14.53432 | 34769 ft | 487 kts | 121° |
| 2026-05-06 19:41 | 48.03428 | 14.62656 | 34737 ft | 488 kts | 121° |
| 2026-05-06 19:42 | 48.00676 | 14.71953 | 34753 ft | 489 kts | 121° |
| 2026-05-06 19:42 | 47.97916 | 14.81244 | 34758 ft | 490 kts | 121° |
| 2026-05-06 19:43 | 47.95145 | 14.90539 | 34758 ft | 489 kts | 121° |
| 2026-05-06 19:43 | 47.92367 | 14.99817 | 34732 ft | 490 kts | 120° |
| 2026-05-06 19:44 | 47.89555 | 15.09168 | 34779 ft | 494 kts | 120° |
| 2026-05-06 19:44 | 47.86743 | 15.18516 | 34776 ft | 494 kts | 120° |
| 2026-05-06 19:45 | 47.83919 | 15.27859 | 34782 ft | 494 kts | 120° |
| 2026-05-06 19:45 | 47.81086 | 15.37183 | 34763 ft | 494 kts | 120° |
| 2026-05-06 19:46 | 47.78253 | 15.46469 | 34784 ft | 490 kts | 120° |
| 2026-05-06 19:46 | 47.75428 | 15.55701 | 34805 ft | 490 kts | 120° |
| 2026-05-06 19:47 | 47.72598 | 15.64912 | 34817 ft | 489 kts | 120° |
| 2026-05-06 19:47 | 47.70224 | 15.72613 | 34808 ft | 489 kts | 120° |
| 2026-05-06 19:48 | 47.67391 | 15.81769 | 34808 ft | 489 kts | 120° |
| 2026-05-06 19:48 | 47.64543 | 15.90939 | 34806 ft | 488 kts | 120° |
| 2026-05-06 19:49 | 47.61696 | 16.00077 | 34805 ft | 488 kts | 120° |
| 2026-05-06 19:49 | 47.58838 | 16.09211 | 34819 ft | 488 kts | 120° |
| 2026-05-06 19:50 | 47.55969 | 16.18340 | 34816 ft | 488 kts | 120° |
| 2026-05-06 19:50 | 47.53097 | 16.27462 | 34823 ft | 488 kts | 120° |
| 2026-05-06 19:51 | 47.50217 | 16.36574 | 34824 ft | 488 kts | 120° |
| 2026-05-06 19:51 | 47.47328 | 16.45674 | 34825 ft | 488 kts | 121° |
| 2026-05-06 19:52 | 47.44433 | 16.54754 | 34822 ft | 488 kts | 120° |
| 2026-05-06 19:52 | 47.41800 | 16.64039 | 34845 ft | 491 kts | 114° |
| 2026-05-06 19:53 | 47.39559 | 16.73579 | 34842 ft | 492 kts | 114° |
| 2026-05-06 19:53 | 47.37320 | 16.83135 | 34825 ft | 492 kts | 114° |
| 2026-05-06 19:54 | 47.35061 | 16.92683 | 34840 ft | 493 kts | 114° |
| 2026-05-06 19:54 | 47.32796 | 17.02226 | 34855 ft | 493 kts | 114° |
| 2026-05-06 19:55 | 47.30521 | 17.11764 | 34866 ft | 493 kts | 114° |
| 2026-05-06 19:55 | 47.28236 | 17.21290 | 34879 ft | 493 kts | 114° |
| 2026-05-06 19:56 | 47.25957 | 17.30729 | 34878 ft | 491 kts | 113° |
| 2026-05-06 19:56 | 47.23667 | 17.40209 | 34886 ft | 491 kts | 113° |
| 2026-05-06 19:57 | 47.21370 | 17.49676 | 34887 ft | 491 kts | 113° |
| 2026-05-06 19:57 | 47.19063 | 17.59137 | 34886 ft | 491 kts | 114° |
| 2026-05-06 19:58 | 47.16753 | 17.68562 | 34882 ft | 488 kts | 113° |
| 2026-05-06 19:58 | 47.14443 | 17.77959 | 34886 ft | 488 kts | 113° |
| 2026-05-06 19:59 | 47.12126 | 17.87341 | 34885 ft | 488 kts | 114° |
| 2026-05-06 19:59 | 47.09801 | 17.96711 | 34889 ft | 488 kts | 114° |
| 2026-05-06 20:00 | 47.07477 | 18.06044 | 34895 ft | 486 kts | 114° |
| 2026-05-06 20:00 | 47.05146 | 18.15366 | 34898 ft | 486 kts | 114° |
| 2026-05-06 20:01 | 47.02809 | 18.24669 | 34900 ft | 486 kts | 114° |
| 2026-05-06 20:01 | 47.00464 | 18.33968 | 34879 ft | 486 kts | 114° |
| 2026-05-06 20:02 | 46.98111 | 18.43241 | 34903 ft | 485 kts | 113° |
| 2026-05-06 20:02 | 46.95774 | 18.52443 | 34904 ft | 485 kts | 114° |
| 2026-05-06 20:03 | 46.93412 | 18.61704 | 34911 ft | 485 kts | 114° |
| 2026-05-06 20:03 | 46.91043 | 18.70949 | 34895 ft | 485 kts | 114° |
| 2026-05-06 20:04 | 46.88668 | 18.80176 | 34906 ft | 483 kts | 114° |
| 2026-05-06 20:04 | 46.86293 | 18.89372 | 34908 ft | 483 kts | 114° |
| 2026-05-06 20:05 | 46.83905 | 18.98576 | 34906 ft | 484 kts | 114° |
| 2026-05-06 20:05 | 46.81508 | 19.07777 | 34898 ft | 485 kts | 114° |
| 2026-05-06 20:06 | 46.79107 | 19.16967 | 34919 ft | 483 kts | 114° |
| 2026-05-06 20:06 | 46.76701 | 19.26134 | 34917 ft | 483 kts | 114° |
| 2026-05-06 20:07 | 46.74289 | 19.35288 | 34926 ft | 483 kts | 114° |
| 2026-05-06 20:07 | 46.71868 | 19.44440 | 34895 ft | 483 kts | 114° |
| 2026-05-06 20:08 | 46.69445 | 19.53569 | 34923 ft | 482 kts | 114° |
| 2026-05-06 20:08 | 46.67016 | 19.62676 | 34923 ft | 482 kts | 114° |
| 2026-05-06 20:09 | 46.64581 | 19.71772 | 34921 ft | 481 kts | 114° |
| 2026-05-06 20:09 | 46.62140 | 19.80854 | 34907 ft | 481 kts | 114° |
| 2026-05-06 20:10 | 46.59690 | 19.89927 | 34916 ft | 481 kts | 114° |
| 2026-05-06 20:10 | 46.57238 | 19.98992 | 34912 ft | 481 kts | 114° |
| 2026-05-06 20:11 | 46.54780 | 20.08039 | 34914 ft | 481 kts | 114° |
| 2026-05-06 20:11 | 46.52312 | 20.17084 | 34909 ft | 481 kts | 114° |
| 2026-05-06 20:12 | 46.49853 | 20.26063 | 34910 ft | 481 kts | 114° |
| 2026-05-06 20:12 | 46.47371 | 20.35092 | 34912 ft | 481 kts | 114° |
| 2026-05-06 20:13 | 46.44882 | 20.44113 | 34909 ft | 481 kts | 114° |
| 2026-05-06 20:13 | 46.42385 | 20.53118 | 34899 ft | 482 kts | 114° |
| 2026-05-06 20:14 | 46.39871 | 20.62157 | 34912 ft | 483 kts | 114° |
| 2026-05-06 20:14 | 46.37349 | 20.71202 | 34918 ft | 483 kts | 114° |
| 2026-05-06 20:15 | 46.34821 | 20.80229 | 34923 ft | 483 kts | 114° |
| 2026-05-06 20:15 | 46.32284 | 20.89251 | 34918 ft | 484 kts | 114° |
| 2026-05-06 20:16 | 46.29725 | 20.98313 | 34936 ft | 486 kts | 114° |
| 2026-05-06 20:16 | 46.27161 | 21.07361 | 34942 ft | 486 kts | 114° |
| 2026-05-06 20:17 | 46.24551 | 21.16391 | 34947 ft | 486 kts | 115° |
| 2026-05-06 20:17 | 46.21877 | 21.25375 | 34945 ft | 487 kts | 115° |
| 2026-05-06 20:18 | 46.19186 | 21.34388 | 34938 ft | 488 kts | 115° |
| 2026-05-06 20:18 | 46.16496 | 21.43383 | 34941 ft | 487 kts | 115° |
| 2026-05-06 20:19 | 46.13803 | 21.52361 | 34945 ft | 487 kts | 115° |
| 2026-05-06 20:19 | 46.11098 | 21.61337 | 34935 ft | 488 kts | 115° |
| 2026-05-06 20:20 | 46.08389 | 21.70308 | 34958 ft | 488 kts | 115° |
| 2026-05-06 20:20 | 46.05668 | 21.79287 | 34961 ft | 488 kts | 115° |
| 2026-05-06 20:21 | 46.02943 | 21.88246 | 34965 ft | 488 kts | 115° |
| 2026-05-06 20:21 | 46.00205 | 21.97202 | 34971 ft | 489 kts | 115° |
| 2026-05-06 20:22 | 45.97460 | 22.06166 | 34971 ft | 489 kts | 115° |
| 2026-05-06 20:22 | 45.94706 | 22.15126 | 34967 ft | 489 kts | 115° |
| 2026-05-06 20:23 | 45.91945 | 22.24077 | 34989 ft | 489 kts | 115° |
| 2026-05-06 20:23 | 45.89166 | 22.33038 | 34987 ft | 492 kts | 115° |
| 2026-05-06 20:24 | 45.86376 | 22.42021 | 34981 ft | 492 kts | 115° |
| 2026-05-06 20:24 | 45.83578 | 22.50999 | 34996 ft | 492 kts | 115° |
| 2026-05-06 20:25 | 45.80771 | 22.59967 | 35001 ft | 492 kts | 115° |
| 2026-05-06 20:25 | 45.77969 | 22.68880 | 35002 ft | 494 kts | 115° |
| 2026-05-06 20:26 | 45.75143 | 22.77853 | 35007 ft | 493 kts | 115° |
| 2026-05-06 20:26 | 45.72311 | 22.86814 | 35015 ft | 493 kts | 115° |
| 2026-05-06 20:27 | 45.69466 | 22.95768 | 35018 ft | 494 kts | 115° |
| 2026-05-06 20:27 | 45.66615 | 23.04717 | 35022 ft | 495 kts | 115° |
| 2026-05-06 20:28 | 45.63754 | 23.13677 | 35032 ft | 495 kts | 115° |
| 2026-05-06 20:28 | 45.60888 | 23.22621 | 35032 ft | 495 kts | 115° |
| 2026-05-06 20:29 | 45.58009 | 23.31560 | 35043 ft | 496 kts | 115° |
| 2026-05-06 20:29 | 45.55124 | 23.40499 | 35054 ft | 495 kts | 115° |
| 2026-05-06 20:30 | 45.50782 | 23.53897 | 35060 ft | 495 kts | 115° |
| 2026-05-06 20:31 | 45.47877 | 23.62815 | 35058 ft | 495 kts | 115° |
| 2026-05-06 20:31 | 45.44964 | 23.71731 | 35063 ft | 495 kts | 115° |
| 2026-05-06 20:32 | 45.42047 | 23.80624 | 35059 ft | 495 kts | 115° |
| 2026-05-06 20:32 | 45.39121 | 23.89518 | 35062 ft | 495 kts | 115° |
| 2026-05-06 20:33 | 45.36182 | 23.98409 | 35053 ft | 496 kts | 115° |
| 2026-05-06 20:33 | 45.33242 | 24.07286 | 35049 ft | 497 kts | 115° |
| 2026-05-06 20:34 | 45.30291 | 24.16172 | 35056 ft | 497 kts | 115° |
| 2026-05-06 20:34 | 45.27331 | 24.25047 | 35051 ft | 496 kts | 115° |
| 2026-05-06 20:35 | 45.24358 | 24.33917 | 35058 ft | 497 kts | 115° |
| 2026-05-06 20:35 | 45.21884 | 24.41296 | 35057 ft | 497 kts | 115° |
| 2026-05-06 20:36 | 45.18904 | 24.50154 | 35066 ft | 497 kts | 115° |
| 2026-05-06 20:36 | 45.15911 | 24.59008 | 35054 ft | 498 kts | 115° |
| 2026-05-06 20:37 | 45.12907 | 24.67863 | 35056 ft | 498 kts | 114° |
| 2026-05-06 20:37 | 45.09902 | 24.76711 | 35060 ft | 498 kts | 115° |
| 2026-05-06 20:38 | 45.06888 | 24.85548 | 35062 ft | 498 kts | 115° |
| 2026-05-06 20:38 | 45.03862 | 24.94373 | 35065 ft | 499 kts | 114° |
| 2026-05-06 20:39 | 45.00828 | 25.03211 | 35067 ft | 499 kts | 114° |
| 2026-05-06 20:39 | 44.97792 | 25.12028 | 35068 ft | 499 kts | 114° |
| 2026-05-06 20:40 | 44.94744 | 25.20846 | 35079 ft | 499 kts | 114° |
| 2026-05-06 20:40 | 44.91686 | 25.29654 | 35059 ft | 499 kts | 114° |
| 2026-05-06 20:41 | 44.88623 | 25.38461 | 35061 ft | 499 kts | 114° |
| 2026-05-06 20:41 | 44.85552 | 25.47260 | 35064 ft | 499 kts | 114° |
| 2026-05-06 20:42 | 44.82493 | 25.55985 | 35064 ft | 500 kts | 114° |
| 2026-05-06 20:42 | 44.79408 | 25.64764 | 35057 ft | 500 kts | 114° |
| 2026-05-06 20:43 | 44.76315 | 25.73540 | 35068 ft | 500 kts | 114° |
| 2026-05-06 20:43 | 44.73214 | 25.82310 | 35057 ft | 500 kts | 114° |
| 2026-05-06 20:44 | 44.70104 | 25.91069 | 35063 ft | 500 kts | 114° |
| 2026-05-06 20:44 | 44.66987 | 25.99826 | 35058 ft | 500 kts | 114° |
| 2026-05-06 20:45 | 44.63866 | 26.08568 | 35062 ft | 500 kts | 114° |
| 2026-05-06 20:45 | 44.60737 | 26.17301 | 35073 ft | 500 kts | 114° |
| 2026-05-06 20:46 | 44.57603 | 26.26021 | 35059 ft | 500 kts | 114° |
| 2026-05-06 20:46 | 44.54460 | 26.34734 | 35060 ft | 500 kts | 114° |
| 2026-05-06 20:47 | 44.51313 | 26.43436 | 35060 ft | 500 kts | 115° |
| 2026-05-06 20:47 | 44.48157 | 26.52131 | 35060 ft | 500 kts | 115° |
| 2026-05-06 20:48 | 44.44995 | 26.60817 | 35071 ft | 500 kts | 115° |
| 2026-05-06 20:48 | 44.41827 | 26.69493 | 35066 ft | 500 kts | 115° |
| 2026-05-06 20:49 | 44.38650 | 26.78163 | 35065 ft | 500 kts | 115° |
| 2026-05-06 20:49 | 44.35468 | 26.86822 | 35068 ft | 500 kts | 115° |
| 2026-05-06 20:50 | 44.32278 | 26.95476 | 35063 ft | 500 kts | 115° |
| 2026-05-06 20:50 | 44.29107 | 27.04050 | 35065 ft | 500 kts | 115° |
| 2026-05-06 20:51 | 44.25902 | 27.12682 | 35077 ft | 500 kts | 115° |
| 2026-05-06 20:51 | 44.22694 | 27.21310 | 35075 ft | 501 kts | 115° |
| 2026-05-06 20:52 | 44.19475 | 27.29934 | 35076 ft | 501 kts | 115° |
| 2026-05-06 20:52 | 44.16249 | 27.38548 | 35095 ft | 501 kts | 115° |
| 2026-05-06 20:53 | 44.13016 | 27.47146 | 35084 ft | 500 kts | 115° |
| 2026-05-06 20:53 | 44.09784 | 27.55730 | 35087 ft | 500 kts | 115° |
| 2026-05-06 20:54 | 44.06542 | 27.64311 | 35082 ft | 500 kts | 115° |
| 2026-05-06 20:54 | 44.03293 | 27.72872 | 35100 ft | 499 kts | 115° |
| 2026-05-06 20:55 | 44.00048 | 27.81407 | 35096 ft | 499 kts | 115° |
| 2026-05-06 20:55 | 43.96804 | 27.89918 | 35095 ft | 499 kts | 115° |
| 2026-05-06 20:56 | 43.93549 | 27.98427 | 35118 ft | 498 kts | 115° |
| 2026-05-06 20:56 | 43.90297 | 28.06898 | 35108 ft | 496 kts | 115° |
| 2026-05-06 20:57 | 43.87044 | 28.15350 | 35113 ft | 496 kts | 115° |
| 2026-05-06 20:57 | 43.83785 | 28.23792 | 35113 ft | 496 kts | 115° |
| 2026-05-06 20:58 | 43.80525 | 28.32213 | 35111 ft | 495 kts | 115° |
| 2026-05-06 20:58 | 43.77268 | 28.40594 | 35120 ft | 494 kts | 115° |
| 2026-05-06 20:59 | 43.74013 | 28.48913 | 35116 ft | 494 kts | 116° |
| 2026-05-06 20:59 | 43.70398 | 28.57029 | 35129 ft | 496 kts | 120° |
| 2026-05-06 21:00 | 43.66688 | 28.65069 | 35125 ft | 495 kts | 120° |
| 2026-05-06 21:00 | 43.62977 | 28.73090 | 35130 ft | 495 kts | 120° |
| 2026-05-06 21:01 | 43.59256 | 28.81117 | 35125 ft | 496 kts | 120° |
| 2026-05-06 21:01 | 43.55533 | 28.89133 | 35131 ft | 496 kts | 120° |
| 2026-05-06 21:02 | 43.51806 | 28.97135 | 35134 ft | 496 kts | 120° |
| 2026-05-06 21:02 | 43.48073 | 29.05127 | 35131 ft | 496 kts | 120° |
| 2026-05-06 21:03 | 43.44338 | 29.13106 | 35150 ft | 495 kts | 120° |
| 2026-05-06 21:03 | 43.40604 | 29.21059 | 35137 ft | 494 kts | 120° |
| 2026-05-06 21:04 | 43.36868 | 29.28990 | 35135 ft | 494 kts | 120° |
| 2026-05-06 21:04 | 43.33123 | 29.36920 | 35133 ft | 494 kts | 121° |
| 2026-05-06 21:05 | 43.29393 | 29.44806 | 35138 ft | 490 kts | 121° |
| 2026-05-06 21:05 | 43.25671 | 29.52644 | 35133 ft | 490 kts | 121° |
| 2026-05-06 21:06 | 43.21939 | 29.60482 | 35139 ft | 490 kts | 121° |
| 2026-05-06 21:06 | 43.18204 | 29.68309 | 35138 ft | 490 kts | 121° |
| 2026-05-06 21:07 | 43.14463 | 29.76126 | 35133 ft | 490 kts | 121° |
| 2026-05-06 21:07 | 43.10719 | 29.83932 | 35117 ft | 490 kts | 121° |
| 2026-05-06 21:08 | 43.06951 | 29.91762 | 35146 ft | 493 kts | 121° |
| 2026-05-06 21:08 | 43.03189 | 29.99564 | 35136 ft | 490 kts | 121° |
| 2026-05-06 21:09 | 42.99435 | 30.07327 | 35136 ft | 490 kts | 121° |
| 2026-05-06 21:09 | 42.95670 | 30.15093 | 35136 ft | 490 kts | 121° |
| 2026-05-06 21:10 | 42.91898 | 30.22846 | 35140 ft | 490 kts | 121° |
| 2026-05-06 21:10 | 42.88155 | 30.30528 | 35135 ft | 490 kts | 121° |
| 2026-05-06 21:11 | 42.84376 | 30.38264 | 35136 ft | 490 kts | 121° |
| 2026-05-06 21:11 | 42.80589 | 30.45988 | 35143 ft | 490 kts | 121° |
| 2026-05-06 21:12 | 42.77074 | 30.53918 | 35132 ft | 487 kts | 114° |
| 2026-05-06 21:12 | 42.74430 | 30.62367 | 35133 ft | 484 kts | 105° |
| 2026-05-06 21:13 | 42.72719 | 30.71188 | 35128 ft | 480 kts | 97° |
| 2026-05-06 21:13 | 42.71749 | 30.80142 | 35139 ft | 476 kts | 94° |
| 2026-05-06 21:14 | 42.70863 | 30.89070 | 35137 ft | 476 kts | 94° |
| 2026-05-06 21:14 | 42.69958 | 30.97992 | 35128 ft | 476 kts | 94° |
| 2026-05-06 21:15 | 42.69037 | 31.06910 | 35126 ft | 476 kts | 94° |
| 2026-05-06 21:15 | 42.68105 | 31.15816 | 35136 ft | 475 kts | 94° |
| 2026-05-06 21:16 | 42.67169 | 31.24713 | 35127 ft | 475 kts | 94° |
| 2026-05-06 21:16 | 42.66226 | 31.33610 | 35129 ft | 475 kts | 94° |
| 2026-05-06 21:17 | 42.65276 | 31.42489 | 35135 ft | 473 kts | 95° |
| 2026-05-06 21:17 | 42.64320 | 31.51350 | 35131 ft | 473 kts | 94° |
| 2026-05-06 21:18 | 42.63359 | 31.60208 | 35138 ft | 473 kts | 94° |
| 2026-05-06 21:18 | 42.62392 | 31.69052 | 35137 ft | 473 kts | 95° |
| 2026-05-06 21:19 | 42.61417 | 31.77906 | 35124 ft | 473 kts | 95° |
| 2026-05-06 21:19 | 42.60434 | 31.86755 | 35135 ft | 474 kts | 95° |
| 2026-05-06 21:20 | 42.59442 | 31.95621 | 35128 ft | 474 kts | 95° |
| 2026-05-06 21:20 | 42.58451 | 32.04469 | 35127 ft | 474 kts | 94° |
| 2026-05-06 21:21 | 42.57458 | 32.13333 | 35125 ft | 474 kts | 95° |
| 2026-05-06 21:21 | 42.56445 | 32.22181 | 35136 ft | 475 kts | 95° |
| 2026-05-06 21:22 | 42.55422 | 32.31050 | 35128 ft | 475 kts | 95° |
| 2026-05-06 21:22 | 42.54402 | 32.39848 | 35126 ft | 475 kts | 95° |
| 2026-05-06 21:23 | 42.53535 | 32.47272 | 35129 ft | 474 kts | 95° |
| 2026-05-06 21:23 | 42.52328 | 32.57536 | 35137 ft | 474 kts | 95° |
| 2026-05-06 21:24 | 42.51280 | 32.66382 | 35125 ft | 475 kts | 95° |
| 2026-05-06 21:24 | 42.50395 | 32.73804 | 35126 ft | 475 kts | 95° |
| 2026-05-06 21:25 | 42.49334 | 32.82657 | 35126 ft | 475 kts | 95° |
| 2026-05-06 21:25 | 42.48266 | 32.91500 | 35128 ft | 475 kts | 95° |
| 2026-05-06 21:26 | 42.47189 | 33.00350 | 35126 ft | 475 kts | 95° |
| 2026-05-06 21:26 | 42.46106 | 33.09193 | 35126 ft | 475 kts | 95° |
| 2026-05-06 21:27 | 42.45016 | 33.18036 | 35130 ft | 475 kts | 95° |
| 2026-05-06 21:27 | 42.43919 | 33.26876 | 35144 ft | 475 kts | 95° |
| 2026-05-06 21:28 | 42.42813 | 33.35728 | 35132 ft | 477 kts | 96° |
| 2026-05-06 21:28 | 42.41696 | 33.44594 | 35139 ft | 477 kts | 96° |
| 2026-05-06 21:29 | 42.40588 | 33.53381 | 35127 ft | 475 kts | 96° |
| 2026-05-06 21:29 | 42.39457 | 33.62260 | 35129 ft | 475 kts | 96° |
| 2026-05-06 21:30 | 42.38330 | 33.71099 | 35137 ft | 476 kts | 97° |
| 2026-05-06 21:30 | 42.37194 | 33.79873 | 35135 ft | 476 kts | 97° |
| 2026-05-06 21:31 | 42.36045 | 33.88702 | 35130 ft | 476 kts | 97° |
| 2026-05-06 21:31 | 42.34898 | 33.97532 | 35128 ft | 476 kts | 97° |
| 2026-05-06 21:32 | 42.33750 | 34.06351 | 35140 ft | 476 kts | 97° |
| 2026-05-06 21:32 | 42.31999 | 34.19595 | 35134 ft | 476 kts | 97° |
| 2026-05-06 21:33 | 42.30825 | 34.28421 | 35139 ft | 476 kts | 97° |
| 2026-05-06 21:33 | 42.29647 | 34.37228 | 35145 ft | 476 kts | 98° |
| 2026-05-06 21:34 | 42.28460 | 34.46051 | 35149 ft | 476 kts | 98° |
| 2026-05-06 21:34 | 42.27267 | 34.54848 | 35138 ft | 475 kts | 98° |
| 2026-05-06 21:35 | 42.26071 | 34.63620 | 35139 ft | 474 kts | 98° |
| 2026-05-06 21:35 | 42.24867 | 34.72393 | 35148 ft | 475 kts | 98° |
| 2026-05-06 21:36 | 42.23656 | 34.81162 | 35140 ft | 475 kts | 98° |
| 2026-05-06 21:36 | 42.22436 | 34.89937 | 35139 ft | 475 kts | 98° |
| 2026-05-06 21:37 | 42.21209 | 34.98709 | 35142 ft | 475 kts | 98° |
| 2026-05-06 21:37 | 42.19973 | 35.07490 | 35150 ft | 475 kts | 98° |
| 2026-05-06 21:38 | 42.18732 | 35.16258 | 35143 ft | 475 kts | 99° |
| 2026-05-06 21:38 | 42.17483 | 35.25014 | 35142 ft | 475 kts | 99° |
| 2026-05-06 21:39 | 42.16235 | 35.33718 | 35144 ft | 475 kts | 99° |
| 2026-05-06 21:39 | 42.14973 | 35.42476 | 35153 ft | 475 kts | 99° |
| 2026-05-06 21:40 | 42.13710 | 35.51245 | 35151 ft | 475 kts | 99° |
| 2026-05-06 21:40 | 42.12438 | 35.59994 | 35148 ft | 475 kts | 99° |
| 2026-05-06 21:41 | 42.11160 | 35.68736 | 35150 ft | 475 kts | 99° |
| 2026-05-06 21:41 | 42.09876 | 35.77478 | 35156 ft | 475 kts | 99° |
| 2026-05-06 21:42 | 42.08586 | 35.86221 | 35157 ft | 476 kts | 99° |
| 2026-05-06 21:42 | 42.07284 | 35.94970 | 35153 ft | 476 kts | 100° |
| 2026-05-06 21:43 | 42.05979 | 36.03704 | 35151 ft | 476 kts | 100° |
| 2026-05-06 21:43 | 42.04666 | 36.12442 | 35163 ft | 476 kts | 100° |
| 2026-05-06 21:44 | 42.03344 | 36.21201 | 35164 ft | 477 kts | 100° |
| 2026-05-06 21:44 | 42.02022 | 36.29898 | 35162 ft | 477 kts | 100° |
| 2026-05-06 21:45 | 42.00684 | 36.38657 | 35160 ft | 477 kts | 100° |
| 2026-05-06 21:45 | 41.99342 | 36.47398 | 35162 ft | 477 kts | 100° |
| 2026-05-06 21:46 | 41.97995 | 36.56132 | 35158 ft | 476 kts | 101° |
| 2026-05-06 21:46 | 41.96641 | 36.64852 | 35162 ft | 476 kts | 101° |
| 2026-05-06 21:47 | 41.95282 | 36.73560 | 35163 ft | 476 kts | 101° |
| 2026-05-06 21:47 | 41.93917 | 36.82273 | 35164 ft | 476 kts | 101° |
| 2026-05-06 21:48 | 41.92538 | 36.91005 | 35162 ft | 477 kts | 101° |
| 2026-05-06 21:48 | 41.91113 | 36.99721 | 35161 ft | 477 kts | 103° |
| 2026-05-06 21:49 | 41.89159 | 37.08246 | 35163 ft | 478 kts | 109° |
| 2026-05-06 21:49 | 41.86636 | 37.16528 | 35168 ft | 479 kts | 112° |
| 2026-05-06 21:50 | 41.84032 | 37.24771 | 35164 ft | 480 kts | 112° |
| 2026-05-06 21:50 | 41.81423 | 37.33016 | 35164 ft | 480 kts | 112° |
| 2026-05-06 21:51 | 41.78813 | 37.41253 | 35162 ft | 480 kts | 112° |
| 2026-05-06 21:51 | 41.76195 | 37.49495 | 35166 ft | 481 kts | 112° |
| 2026-05-06 21:52 | 41.73583 | 37.57688 | 35163 ft | 481 kts | 112° |
| 2026-05-06 21:52 | 41.70950 | 37.65922 | 35166 ft | 481 kts | 112° |
| 2026-05-06 21:53 | 41.68296 | 37.74213 | 35166 ft | 481 kts | 113° |
| 2026-05-06 21:53 | 41.65653 | 37.82440 | 35166 ft | 480 kts | 113° |
| 2026-05-06 21:54 | 41.63022 | 37.90596 | 35163 ft | 480 kts | 113° |
| 2026-05-06 21:54 | 41.60369 | 37.98799 | 35163 ft | 480 kts | 113° |
| 2026-05-06 21:55 | 41.57707 | 38.07012 | 35170 ft | 480 kts | 113° |
| 2026-05-06 21:55 | 41.55039 | 38.15206 | 35172 ft | 480 kts | 114° |
| 2026-05-06 21:56 | 41.52365 | 38.23396 | 35172 ft | 480 kts | 114° |
| 2026-05-06 21:56 | 41.49689 | 38.31576 | 35170 ft | 481 kts | 114° |
| 2026-05-06 21:57 | 41.47000 | 38.39762 | 35172 ft | 481 kts | 114° |
| 2026-05-06 21:57 | 41.44306 | 38.47941 | 35171 ft | 481 kts | 114° |
| 2026-05-06 21:58 | 41.41613 | 38.56093 | 35170 ft | 479 kts | 114° |
| 2026-05-06 21:58 | 41.38917 | 38.64237 | 35166 ft | 481 kts | 114° |
| 2026-05-06 21:59 | 41.36205 | 38.72391 | 35166 ft | 481 kts | 114° |
| 2026-05-06 21:59 | 41.33494 | 38.80536 | 35163 ft | 481 kts | 114° |
| 2026-05-06 22:00 | 41.30823 | 38.88717 | 35164 ft | 482 kts | 114° |
| 2026-05-06 22:00 | 41.28149 | 38.96899 | 35165 ft | 482 kts | 114° |
| 2026-05-06 22:01 | 41.25468 | 39.05058 | 35164 ft | 482 kts | 114° |
| 2026-05-06 22:01 | 41.22775 | 39.13227 | 35168 ft | 482 kts | 114° |
| 2026-05-06 22:02 | 41.20040 | 39.21368 | 35169 ft | 482 kts | 116° |
| 2026-05-06 22:02 | 41.17210 | 39.29443 | 35175 ft | 482 kts | 116° |
| 2026-05-06 22:03 | 41.14391 | 39.37464 | 35177 ft | 482 kts | 116° |
| 2026-05-06 22:03 | 41.11557 | 39.45533 | 35184 ft | 482 kts | 116° |
| 2026-05-06 22:04 | 41.08722 | 39.53593 | 35188 ft | 482 kts | 116° |
| 2026-05-06 22:04 | 41.05876 | 39.61656 | 35191 ft | 482 kts | 116° |
| 2026-05-06 22:05 | 41.03102 | 39.69748 | 35188 ft | 483 kts | 113° |
| 2026-05-06 22:05 | 41.00950 | 39.78209 | 35192 ft | 485 kts | 106° |
| 2026-05-06 22:06 | 40.99609 | 39.86964 | 35194 ft | 486 kts | 98° |
| 2026-05-06 22:06 | 40.99086 | 39.95892 | 35189 ft | 486 kts | 92° |
| 2026-05-06 22:07 | 40.98894 | 40.04846 | 35177 ft | 487 kts | 92° |
| 2026-05-06 22:07 | 40.98693 | 40.13851 | 35174 ft | 489 kts | 93° |
| 2026-05-06 22:08 | 40.98469 | 40.22856 | 35168 ft | 489 kts | 93° |
| 2026-05-06 22:08 | 40.98225 | 40.31853 | 35166 ft | 488 kts | 93° |
| 2026-05-06 22:09 | 40.97972 | 40.40842 | 35169 ft | 488 kts | 93° |
| 2026-05-06 22:09 | 40.97717 | 40.49803 | 35172 ft | 491 kts | 94° |
| 2026-05-06 22:10 | 40.97448 | 40.58843 | 35180 ft | 491 kts | 94° |
| 2026-05-06 22:10 | 40.97172 | 40.67893 | 35182 ft | 491 kts | 94° |
| 2026-05-06 22:11 | 40.96890 | 40.76937 | 35189 ft | 491 kts | 94° |
| 2026-05-06 22:11 | 40.96600 | 40.85988 | 35185 ft | 491 kts | 94° |
| 2026-05-06 22:12 | 40.96308 | 40.95057 | 35185 ft | 492 kts | 94° |
| 2026-05-06 22:12 | 40.96004 | 41.04114 | 35182 ft | 492 kts | 94° |
| 2026-05-06 22:13 | 40.95692 | 41.13176 | 35180 ft | 492 kts | 94° |
| 2026-05-06 22:13 | 40.95375 | 41.22235 | 35178 ft | 492 kts | 95° |
| 2026-05-06 22:14 | 40.95108 | 41.29751 | 35172 ft | 492 kts | 95° |
| 2026-05-06 22:14 | 40.94777 | 41.38812 | 35175 ft | 492 kts | 95° |
| 2026-05-06 22:15 | 40.94438 | 41.47868 | 35189 ft | 492 kts | 95° |
| 2026-05-06 22:15 | 40.94092 | 41.56927 | 35191 ft | 492 kts | 95° |
| 2026-05-06 22:16 | 40.93739 | 41.65990 | 35188 ft | 492 kts | 95° |
| 2026-05-06 22:16 | 40.93380 | 41.75059 | 35188 ft | 495 kts | 95° |
| 2026-05-06 22:17 | 40.93011 | 41.84156 | 35191 ft | 494 kts | 95° |
| 2026-05-06 22:17 | 40.92636 | 41.93250 | 35191 ft | 494 kts | 95° |
| 2026-05-06 22:18 | 40.92255 | 42.02333 | 35187 ft | 494 kts | 95° |
| 2026-05-06 22:18 | 40.91866 | 42.11423 | 35168 ft | 495 kts | 96° |
| 2026-05-06 22:19 | 40.91468 | 42.20576 | 35182 ft | 499 kts | 96° |
| 2026-05-06 22:19 | 40.91060 | 42.29741 | 35177 ft | 499 kts | 96° |
| 2026-05-06 22:20 | 40.90644 | 42.38894 | 35178 ft | 497 kts | 96° |
| 2026-05-06 22:20 | 40.90225 | 42.48020 | 35175 ft | 496 kts | 96° |
| 2026-05-06 22:21 | 40.89801 | 42.57154 | 35162 ft | 498 kts | 96° |
| 2026-05-06 22:21 | 40.89364 | 42.66318 | 35162 ft | 499 kts | 96° |
| 2026-05-06 22:22 | 40.88919 | 42.75486 | 35151 ft | 499 kts | 96° |
| 2026-05-06 22:22 | 40.88468 | 42.84656 | 35158 ft | 499 kts | 96° |
| 2026-05-06 22:23 | 40.88013 | 42.93747 | 35128 ft | 498 kts | 97° |
| 2026-05-06 22:23 | 40.87552 | 43.02904 | 35135 ft | 499 kts | 97° |
| 2026-05-06 22:24 | 40.87077 | 43.12071 | 35139 ft | 499 kts | 97° |
| 2026-05-06 22:24 | 40.86595 | 43.21237 | 35141 ft | 499 kts | 97° |
| 2026-05-06 22:25 | 40.86108 | 43.30401 | 35143 ft | 499 kts | 97° |
| 2026-05-06 22:25 | 40.85613 | 43.39562 | 35141 ft | 499 kts | 97° |
| 2026-05-06 22:26 | 40.85112 | 43.48723 | 35142 ft | 499 kts | 97° |
| 2026-05-06 22:26 | 40.84601 | 43.57881 | 35142 ft | 499 kts | 97° |
| 2026-05-06 22:27 | 40.84070 | 43.67035 | 35140 ft | 498 kts | 99° |
| 2026-05-06 22:27 | 40.83136 | 43.76106 | 35143 ft | 498 kts | 102° |
| 2026-05-06 22:28 | 40.82064 | 43.85171 | 35144 ft | 499 kts | 103° |
| 2026-05-06 22:28 | 40.80983 | 43.94241 | 35132 ft | 499 kts | 103° |
| 2026-05-06 22:29 | 40.79902 | 44.03306 | 35137 ft | 500 kts | 103° |
| 2026-05-06 22:29 | 40.78814 | 44.12376 | 35098 ft | 500 kts | 103° |
| 2026-05-06 22:30 | 40.77719 | 44.21455 | 35116 ft | 501 kts | 103° |
| 2026-05-06 22:30 | 40.76622 | 44.30485 | 35119 ft | 501 kts | 103° |
| 2026-05-06 22:31 | 40.75511 | 44.39558 | 35116 ft | 501 kts | 103° |
| 2026-05-06 22:31 | 40.74393 | 44.48639 | 35086 ft | 501 kts | 103° |
| 2026-05-06 22:32 | 40.73269 | 44.57715 | 35099 ft | 501 kts | 103° |
| 2026-05-06 22:32 | 40.72134 | 44.66804 | 35097 ft | 501 kts | 104° |
| 2026-05-06 22:33 | 40.70993 | 44.75891 | 35101 ft | 501 kts | 104° |
| 2026-05-06 22:33 | 40.69845 | 44.84967 | 35097 ft | 502 kts | 104° |
| 2026-05-06 22:34 | 40.68688 | 44.94059 | 35089 ft | 502 kts | 104° |
| 2026-05-06 22:34 | 40.67525 | 45.03140 | 35096 ft | 502 kts | 104° |
| 2026-05-06 22:35 | 40.66354 | 45.12227 | 35095 ft | 503 kts | 104° |
| 2026-05-06 22:35 | 40.65173 | 45.21318 | 35103 ft | 503 kts | 104° |
| 2026-05-06 22:36 | 40.63986 | 45.30413 | 35095 ft | 504 kts | 104° |
| 2026-05-06 22:36 | 40.62789 | 45.39506 | 35099 ft | 504 kts | 104° |
| 2026-05-06 22:37 | 40.61588 | 45.48605 | 35101 ft | 503 kts | 104° |
| 2026-05-06 22:37 | 40.60380 | 45.57696 | 35102 ft | 503 kts | 104° |
| 2026-05-06 22:38 | 40.59163 | 45.66801 | 35088 ft | 505 kts | 105° |
| 2026-05-06 22:38 | 40.57935 | 45.75914 | 35091 ft | 505 kts | 105° |
| 2026-05-06 22:39 | 40.56700 | 45.85028 | 35093 ft | 505 kts | 105° |
| 2026-05-06 22:39 | 40.55467 | 45.94080 | 35093 ft | 506 kts | 105° |
| 2026-05-06 22:40 | 40.54209 | 46.03254 | 35088 ft | 507 kts | 105° |
| 2026-05-06 22:40 | 40.52947 | 46.12384 | 35086 ft | 507 kts | 105° |
| 2026-05-06 22:41 | 40.51054 | 46.26000 | 35091 ft | 506 kts | 105° |
| 2026-05-06 22:42 | 40.49778 | 46.35115 | 35073 ft | 507 kts | 105° |
| 2026-05-06 22:42 | 40.48493 | 46.44238 | 35090 ft | 507 kts | 105° |
| 2026-05-06 22:43 | 40.47198 | 46.53357 | 35089 ft | 507 kts | 105° |
| 2026-05-06 22:43 | 40.45898 | 46.62465 | 35093 ft | 507 kts | 106° |
| 2026-05-06 22:44 | 40.44592 | 46.71576 | 35085 ft | 507 kts | 106° |
| 2026-05-06 22:44 | 40.43278 | 46.80685 | 35092 ft | 507 kts | 106° |
| 2026-05-06 22:45 | 40.41955 | 46.89782 | 35099 ft | 507 kts | 106° |
| 2026-05-06 22:45 | 40.40626 | 46.98880 | 35104 ft | 507 kts | 106° |
| 2026-05-06 22:46 | 40.39290 | 47.07972 | 35102 ft | 507 kts | 106° |
| 2026-05-06 22:46 | 40.37949 | 47.17057 | 35098 ft | 507 kts | 106° |
| 2026-05-06 22:47 | 40.36598 | 47.26149 | 35101 ft | 507 kts | 107° |
| 2026-05-06 22:47 | 40.35242 | 47.35223 | 35101 ft | 507 kts | 107° |
| 2026-05-06 22:48 | 40.33879 | 47.44309 | 35101 ft | 507 kts | 107° |
| 2026-05-06 22:48 | 40.32505 | 47.53398 | 35108 ft | 508 kts | 107° |
| 2026-05-06 22:49 | 40.31123 | 47.62481 | 35109 ft | 508 kts | 107° |
| 2026-05-06 22:49 | 40.29745 | 47.71501 | 35109 ft | 508 kts | 107° |
| 2026-05-06 22:50 | 40.28353 | 47.80581 | 35093 ft | 508 kts | 107° |
| 2026-05-06 22:50 | 40.26950 | 47.89659 | 35105 ft | 508 kts | 107° |
| 2026-05-06 22:51 | 40.25537 | 47.98744 | 35108 ft | 508 kts | 108° |
| 2026-05-06 22:51 | 40.24120 | 48.07818 | 35112 ft | 508 kts | 108° |
| 2026-05-06 22:52 | 40.22699 | 48.16884 | 35078 ft | 508 kts | 108° |
| 2026-05-06 22:52 | 40.21266 | 48.25958 | 35107 ft | 508 kts | 108° |
| 2026-05-06 22:53 | 40.19826 | 48.35020 | 35102 ft | 508 kts | 108° |
| 2026-05-06 22:53 | 40.18381 | 48.44077 | 35101 ft | 508 kts | 108° |
| 2026-05-06 22:54 | 40.16930 | 48.53134 | 35080 ft | 509 kts | 108° |
| 2026-05-06 22:54 | 40.15464 | 48.62214 | 35097 ft | 510 kts | 109° |
| 2026-05-06 22:55 | 40.13989 | 48.71299 | 35094 ft | 510 kts | 109° |
| 2026-05-06 22:55 | 40.12510 | 48.80376 | 35094 ft | 510 kts | 109° |
| 2026-05-06 22:56 | 40.11027 | 48.89439 | 35084 ft | 511 kts | 109° |
| 2026-05-06 22:56 | 40.09527 | 48.98541 | 35090 ft | 512 kts | 109° |
| 2026-05-06 22:57 | 40.08021 | 49.07623 | 35095 ft | 512 kts | 109° |
| 2026-05-06 22:57 | 40.06506 | 49.16720 | 35088 ft | 511 kts | 109° |
| 2026-05-06 22:58 | 40.04986 | 49.25807 | 35076 ft | 512 kts | 109° |
| 2026-05-06 22:58 | 40.03454 | 49.34906 | 35079 ft | 512 kts | 109° |
| 2026-05-06 22:59 | 40.01917 | 49.43993 | 35093 ft | 512 kts | 110° |
| 2026-05-06 22:59 | 40.00374 | 49.53074 | 35085 ft | 512 kts | 110° |
| 2026-05-06 23:00 | 39.98824 | 49.62154 | 35079 ft | 513 kts | 110° |
| 2026-05-06 23:00 | 39.97263 | 49.71243 | 35086 ft | 513 kts | 110° |
| 2026-05-06 23:01 | 39.95693 | 49.80334 | 35084 ft | 513 kts | 110° |
| 2026-05-06 23:01 | 39.94385 | 49.87884 | 35082 ft | 513 kts | 110° |
| 2026-05-06 23:02 | 39.92804 | 49.96967 | 35075 ft | 513 kts | 110° |
| 2026-05-06 23:02 | 39.91217 | 50.06033 | 35083 ft | 513 kts | 110° |
| 2026-05-06 23:03 | 39.89619 | 50.15118 | 35078 ft | 513 kts | 110° |
| 2026-05-06 23:03 | 39.88016 | 50.24193 | 35054 ft | 514 kts | 110° |
| 2026-05-06 23:04 | 39.86403 | 50.33276 | 35075 ft | 514 kts | 110° |
| 2026-05-06 23:04 | 39.84782 | 50.42358 | 35078 ft | 514 kts | 110° |
| 2026-05-06 23:05 | 39.83156 | 50.51434 | 35082 ft | 514 kts | 110° |
| 2026-05-06 23:05 | 39.81522 | 50.60500 | 35082 ft | 514 kts | 111° |
| 2026-05-06 23:06 | 39.79881 | 50.69567 | 35082 ft | 514 kts | 111° |
| 2026-05-06 23:06 | 39.78244 | 50.78563 | 35073 ft | 514 kts | 111° |
| 2026-05-06 23:07 | 39.76589 | 50.87623 | 35076 ft | 514 kts | 111° |
| 2026-05-06 23:07 | 39.74926 | 50.96680 | 35063 ft | 515 kts | 111° |
| 2026-05-06 23:08 | 39.73255 | 51.05738 | 35077 ft | 515 kts | 111° |
| 2026-05-06 23:08 | 39.71576 | 51.14795 | 35079 ft | 515 kts | 111° |
| 2026-05-06 23:09 | 39.69892 | 51.23840 | 35076 ft | 515 kts | 111° |
| 2026-05-06 23:09 | 39.68199 | 51.32888 | 35057 ft | 515 kts | 111° |
| 2026-05-06 23:10 | 39.66497 | 51.41940 | 35075 ft | 515 kts | 111° |
| 2026-05-06 23:10 | 39.64844 | 51.51014 | 35072 ft | 518 kts | 108° |
| 2026-05-06 23:11 | 39.63530 | 51.60231 | 35082 ft | 519 kts | 107° |
| 2026-05-06 23:11 | 39.62249 | 51.69466 | 35058 ft | 519 kts | 107° |
| 2026-05-06 23:12 | 39.60955 | 51.78693 | 35063 ft | 519 kts | 107° |
| 2026-05-06 23:12 | 39.59648 | 51.87913 | 35062 ft | 519 kts | 108° |
| 2026-05-06 23:13 | 39.58332 | 51.97125 | 35065 ft | 519 kts | 108° |
| 2026-05-06 23:13 | 39.57011 | 52.06322 | 35052 ft | 519 kts | 108° |
| 2026-05-06 23:14 | 39.55690 | 52.15460 | 35059 ft | 519 kts | 108° |
| 2026-05-06 23:14 | 39.54353 | 52.24663 | 35060 ft | 519 kts | 108° |
| 2026-05-06 23:15 | 39.53009 | 52.33852 | 35064 ft | 519 kts | 108° |
| 2026-05-06 23:15 | 39.51657 | 52.43046 | 35052 ft | 519 kts | 108° |
| 2026-05-06 23:16 | 39.50296 | 52.52246 | 35062 ft | 519 kts | 108° |
| 2026-05-06 23:16 | 39.48930 | 52.61433 | 35056 ft | 519 kts | 108° |
| 2026-05-06 23:17 | 39.47557 | 52.70615 | 35049 ft | 519 kts | 108° |
| 2026-05-06 23:17 | 39.46175 | 52.79796 | 35035 ft | 519 kts | 108° |
| 2026-05-06 23:18 | 39.44784 | 52.88989 | 35034 ft | 519 kts | 108° |
| 2026-05-06 23:18 | 39.43387 | 52.98171 | 35047 ft | 520 kts | 108° |
| 2026-05-06 23:19 | 39.41985 | 53.07346 | 35045 ft | 520 kts | 108° |
| 2026-05-06 23:19 | 39.40571 | 53.16527 | 35034 ft | 519 kts | 108° |
| 2026-05-06 23:20 | 39.39153 | 53.25697 | 35041 ft | 519 kts | 108° |
| 2026-05-06 23:20 | 39.37729 | 53.34862 | 35040 ft | 519 kts | 108° |
| 2026-05-06 23:21 | 39.36296 | 53.44022 | 35043 ft | 519 kts | 108° |
| 2026-05-06 23:21 | 39.34853 | 53.53187 | 35022 ft | 519 kts | 108° |
| 2026-05-06 23:22 | 39.33406 | 53.62345 | 35037 ft | 519 kts | 108° |
| 2026-05-06 23:22 | 39.31964 | 53.71434 | 35036 ft | 519 kts | 108° |
| 2026-05-06 23:23 | 39.30503 | 53.80583 | 35032 ft | 519 kts | 108° |
| 2026-05-06 23:23 | 39.29033 | 53.89719 | 35025 ft | 519 kts | 108° |
| 2026-05-06 23:24 | 39.27555 | 53.98868 | 35028 ft | 520 kts | 108° |
| 2026-05-06 23:24 | 39.26073 | 54.08012 | 35032 ft | 520 kts | 108° |
| 2026-05-06 23:25 | 39.24582 | 54.17158 | 35033 ft | 520 kts | 108° |
| 2026-05-06 23:25 | 39.23085 | 54.26290 | 35031 ft | 520 kts | 108° |
| 2026-05-06 23:26 | 39.21579 | 54.35424 | 35028 ft | 520 kts | 108° |
| 2026-05-06 23:26 | 39.20065 | 54.44553 | 35029 ft | 520 kts | 108° |
| 2026-05-06 23:27 | 39.18541 | 54.53695 | 35032 ft | 521 kts | 108° |
| 2026-05-06 23:27 | 39.17007 | 54.62839 | 35023 ft | 521 kts | 108° |
| 2026-05-06 23:28 | 39.15468 | 54.71983 | 35027 ft | 521 kts | 108° |
| 2026-05-06 23:28 | 39.13921 | 54.81121 | 35035 ft | 522 kts | 108° |
| 2026-05-06 23:29 | 39.12376 | 54.90203 | 35038 ft | 522 kts | 108° |
| 2026-05-06 23:29 | 39.10801 | 54.99407 | 35028 ft | 522 kts | 108° |
| 2026-05-06 23:30 | 39.09242 | 55.08470 | 35038 ft | 523 kts | 108° |
| 2026-05-06 23:30 | 39.07664 | 55.17616 | 35033 ft | 523 kts | 108° |
| 2026-05-06 23:31 | 39.06076 | 55.26760 | 35036 ft | 522 kts | 108° |
| 2026-05-06 23:31 | 39.04480 | 55.35899 | 35026 ft | 522 kts | 108° |
| 2026-05-06 23:32 | 39.02882 | 55.45024 | 35037 ft | 522 kts | 108° |
| 2026-05-06 23:32 | 39.01273 | 55.54146 | 35027 ft | 522 kts | 108° |
| 2026-05-06 23:33 | 38.99665 | 55.63250 | 35035 ft | 522 kts | 108° |
| 2026-05-06 23:33 | 38.98049 | 55.72362 | 35020 ft | 522 kts | 108° |
| 2026-05-06 23:34 | 38.96426 | 55.81463 | 35026 ft | 521 kts | 108° |
| 2026-05-06 23:34 | 38.94798 | 55.90554 | 35025 ft | 522 kts | 108° |
| 2026-05-06 23:35 | 38.93163 | 55.99643 | 35025 ft | 521 kts | 108° |
| 2026-05-06 23:35 | 38.91533 | 56.08657 | 35021 ft | 521 kts | 108° |
| 2026-05-06 23:36 | 38.89883 | 56.17731 | 35024 ft | 521 kts | 108° |
| 2026-05-06 23:36 | 38.88217 | 56.26860 | 35035 ft | 521 kts | 108° |
| 2026-05-06 23:37 | 38.86566 | 56.35851 | 35031 ft | 521 kts | 108° |
| 2026-05-06 23:37 | 38.84887 | 56.44961 | 35009 ft | 521 kts | 108° |
| 2026-05-06 23:38 | 38.83225 | 56.53941 | 35022 ft | 520 kts | 108° |
| 2026-05-06 23:38 | 38.81543 | 56.62978 | 35006 ft | 520 kts | 108° |
| 2026-05-06 23:39 | 38.79845 | 56.72065 | 35018 ft | 520 kts | 108° |
| 2026-05-06 23:39 | 38.78152 | 56.81090 | 35003 ft | 520 kts | 108° |
| 2026-05-06 23:40 | 38.76460 | 56.90048 | 34985 ft | 520 kts | 108° |
| 2026-05-06 23:40 | 38.74755 | 56.99052 | 34987 ft | 520 kts | 108° |
| 2026-05-06 23:41 | 38.73044 | 57.08052 | 34971 ft | 520 kts | 108° |
| 2026-05-06 23:41 | 38.71322 | 57.17051 | 34968 ft | 519 kts | 108° |
| 2026-05-06 23:42 | 38.69596 | 57.26043 | 34965 ft | 519 kts | 108° |
| 2026-05-06 23:42 | 38.67866 | 57.35019 | 34964 ft | 519 kts | 108° |
| 2026-05-06 23:43 | 38.66126 | 57.43994 | 34961 ft | 518 kts | 108° |
| 2026-05-06 23:43 | 38.64383 | 57.52951 | 34956 ft | 518 kts | 108° |
| 2026-05-06 23:44 | 38.62613 | 57.61887 | 34937 ft | 516 kts | 110° |
| 2026-05-06 23:44 | 38.60309 | 57.70554 | 34951 ft | 512 kts | 117° |
| 2026-05-06 23:45 | 38.57436 | 57.78869 | 34947 ft | 510 kts | 119° |
| 2026-05-06 23:45 | 38.54511 | 57.87149 | 34950 ft | 510 kts | 119° |
| 2026-05-06 23:46 | 38.51595 | 57.95426 | 34949 ft | 511 kts | 119° |
| 2026-05-06 23:46 | 38.48679 | 58.03710 | 34948 ft | 511 kts | 119° |
| 2026-05-06 23:47 | 38.45757 | 58.11994 | 34948 ft | 511 kts | 119° |
| 2026-05-06 23:47 | 38.42829 | 58.20269 | 34940 ft | 511 kts | 119° |
| 2026-05-06 23:48 | 38.39797 | 58.28477 | 34937 ft | 510 kts | 123° |
| 2026-05-06 23:48 | 38.36281 | 58.36227 | 34944 ft | 507 kts | 126° |
| 2026-05-06 23:49 | 38.32632 | 58.43940 | 34947 ft | 507 kts | 126° |
| 2026-05-06 23:49 | 38.28983 | 58.51644 | 34926 ft | 508 kts | 126° |
| 2026-05-06 23:50 | 38.25337 | 58.59346 | 34933 ft | 508 kts | 126° |
| 2026-05-06 23:50 | 38.19861 | 58.70893 | 34930 ft | 508 kts | 126° |
| 2026-05-06 23:51 | 38.16204 | 58.78580 | 34932 ft | 508 kts | 126° |
| 2026-05-06 23:51 | 38.12538 | 58.86268 | 34929 ft | 508 kts | 126° |
| 2026-05-06 23:52 | 38.08865 | 58.93951 | 34930 ft | 508 kts | 126° |
| 2026-05-06 23:52 | 38.05788 | 59.00374 | 34931 ft | 508 kts | 126° |
| 2026-05-06 23:53 | 38.02131 | 59.07987 | 34920 ft | 509 kts | 126° |
| 2026-05-06 23:53 | 37.98445 | 59.15649 | 34920 ft | 509 kts | 126° |
| 2026-05-06 23:54 | 37.94751 | 59.23311 | 34921 ft | 509 kts | 126° |
| 2026-05-06 23:54 | 37.91049 | 59.30964 | 34912 ft | 509 kts | 126° |
| 2026-05-06 23:55 | 37.87087 | 59.38364 | 34909 ft | 505 kts | 132° |
| 2026-05-06 23:55 | 37.82837 | 59.45443 | 34912 ft | 505 kts | 132° |
| 2026-05-06 23:56 | 37.78569 | 59.52511 | 34900 ft | 505 kts | 132° |
| 2026-05-06 23:56 | 37.74298 | 59.59579 | 34909 ft | 506 kts | 132° |
| 2026-05-06 23:57 | 37.70027 | 59.66639 | 34911 ft | 505 kts | 132° |
| 2026-05-06 23:57 | 37.65756 | 59.73689 | 34907 ft | 505 kts | 132° |
| 2026-05-06 23:58 | 37.61472 | 59.80744 | 34906 ft | 506 kts | 132° |
| 2026-05-06 23:58 | 37.57182 | 59.87795 | 34909 ft | 506 kts | 132° |
| 2026-05-06 23:59 | 37.52888 | 59.94834 | 34907 ft | 506 kts | 132° |
| 2026-05-06 23:59 | 37.48586 | 60.01874 | 34898 ft | 508 kts | 132° |
| 2026-05-07 00:00 | 37.44262 | 60.08938 | 34901 ft | 509 kts | 132° |
| 2026-05-07 00:00 | 37.39932 | 60.15994 | 34909 ft | 509 kts | 132° |
| 2026-05-07 00:01 | 37.35603 | 60.23029 | 34893 ft | 508 kts | 132° |
| 2026-05-07 00:01 | 37.31271 | 60.30060 | 34891 ft | 508 kts | 132° |
| 2026-05-07 00:02 | 37.26937 | 60.37080 | 34895 ft | 508 kts | 132° |
| 2026-05-07 00:02 | 37.22595 | 60.44096 | 34893 ft | 508 kts | 132° |
| 2026-05-07 00:03 | 37.18288 | 60.51037 | 34900 ft | 506 kts | 132° |
| 2026-05-07 00:03 | 37.13965 | 60.57996 | 34886 ft | 505 kts | 132° |
| 2026-05-07 00:04 | 37.09611 | 60.64987 | 34882 ft | 505 kts | 132° |
| 2026-05-07 00:04 | 37.05302 | 60.71890 | 34865 ft | 507 kts | 132° |
| 2026-05-07 00:05 | 37.00945 | 60.78853 | 34885 ft | 507 kts | 132° |
| 2026-05-07 00:05 | 37.00210 | 60.80028 | 34886 ft | 507 kts | 132° |